createdAt,value
2019-04-06T00:02:32.948Z,5.99
2019-04-06T00:05:01.417Z,5.98
2019-04-06T00:07:29.900Z,5.94
2019-04-06T00:09:58.394Z,5.90
2019-04-06T00:12:26.866Z,5.86
2019-04-06T00:14:55.424Z,5.90
2019-04-06T00:17:23.889Z,5.88
2019-04-06T00:19:52.359Z,5.78
2019-04-06T00:22:20.843Z,5.81
2019-04-06T00:24:49.349Z,5.76
2019-04-06T00:27:17.848Z,5.74
2019-04-06T00:29:46.322Z,5.72
2019-04-06T00:32:28.641Z,5.72
2019-04-06T00:34:57.111Z,5.72
2019-04-06T00:37:25.583Z,5.71
2019-04-06T00:39:54.109Z,5.64
2019-04-06T00:42:22.624Z,5.60
2019-04-06T00:44:51.105Z,5.60
2019-04-06T00:47:19.588Z,5.58
2019-04-06T00:49:48.096Z,5.55
2019-04-06T00:52:16.585Z,5.41
2019-04-06T00:54:45.065Z,5.40
2019-04-06T00:57:13.551Z,5.24
2019-04-06T00:59:42.039Z,5.36
2019-04-06T01:02:10.838Z,5.34
2019-04-06T01:04:39.343Z,5.41
2019-04-06T01:07:07.847Z,5.39
2019-04-06T01:09:36.390Z,5.36
2019-04-06T01:12:04.962Z,5.33
2019-04-06T01:14:33.442Z,5.32
2019-04-06T01:17:01.928Z,5.25
2019-04-06T01:19:30.483Z,5.26
2019-04-06T01:21:58.992Z,5.14
2019-04-06T01:24:27.576Z,5.24
2019-04-06T01:26:56.038Z,5.26
2019-04-06T01:29:24.555Z,5.26
2019-04-06T01:31:53.016Z,5.16
2019-04-06T01:34:21.511Z,5.09
2019-04-06T01:36:50.392Z,5.09
2019-04-06T01:39:18.880Z,5.05
2019-04-06T01:41:47.363Z,4.98
2019-04-06T01:44:15.909Z,5.01
2019-04-06T01:46:44.411Z,5.06
2019-04-06T01:49:12.908Z,5.04
2019-04-06T01:51:41.423Z,4.88
2019-04-06T01:54:09.911Z,4.87
2019-04-06T01:56:38.355Z,4.80
2019-04-06T01:59:06.919Z,4.78
2019-04-06T02:01:52.080Z,4.79
2019-04-06T02:04:20.561Z,4.77
2019-04-06T02:06:49.063Z,4.78
2019-04-06T02:09:17.559Z,4.78
2019-04-06T02:11:46.020Z,4.80
2019-04-06T02:14:14.474Z,4.78
2019-04-06T02:16:42.957Z,4.77
2019-04-06T02:19:12.252Z,4.78
2019-04-06T02:21:40.779Z,4.69
2019-04-06T02:24:09.250Z,4.62
2019-04-06T02:26:37.784Z,4.67
2019-04-06T02:29:06.287Z,4.71
2019-04-06T02:31:36.509Z,4.67
2019-04-06T02:34:24.332Z,4.66
2019-04-06T02:36:56.987Z,4.64
2019-04-06T02:39:39.089Z,4.49
2019-04-06T02:42:09.341Z,4.49
2019-04-06T02:44:37.839Z,4.42
2019-04-06T02:47:06.430Z,4.32
2019-04-06T02:49:34.919Z,4.26
2019-04-06T02:52:03.381Z,4.27
2019-04-06T02:54:31.845Z,4.23
2019-04-06T02:57:00.370Z,4.26
2019-04-06T02:59:28.954Z,4.20
2019-04-06T03:01:57.479Z,4.22
2019-04-06T03:04:25.928Z,4.22
2019-04-06T03:06:54.468Z,4.00
2019-04-06T03:09:23.579Z,4.12
2019-04-06T03:11:52.030Z,4.13
2019-04-06T03:14:20.474Z,4.17
2019-04-06T03:16:48.982Z,4.20
2019-04-06T03:19:17.657Z,4.14
2019-04-06T03:21:46.204Z,4.16
2019-04-06T03:24:14.681Z,4.07
2019-04-06T03:26:43.140Z,4.11
2019-04-06T03:29:11.626Z,4.09
2019-04-06T03:31:40.422Z,4.01
2019-04-06T03:34:09.668Z,3.95
2019-04-06T03:36:38.354Z,3.96
2019-04-06T03:39:07.297Z,3.97
2019-04-06T03:41:35.840Z,3.99
2019-04-06T03:44:04.316Z,3.98
2019-04-06T03:46:32.775Z,3.98
2019-04-06T03:49:01.346Z,3.92
2019-04-06T03:51:29.810Z,3.92
2019-04-06T03:53:58.329Z,3.89
2019-04-06T03:56:26.773Z,3.90
2019-04-06T03:58:55.405Z,3.84
2019-04-06T04:01:23.855Z,3.88
2019-04-06T04:03:52.375Z,3.91
2019-04-06T04:06:20.833Z,3.85
2019-04-06T04:08:49.303Z,3.88
2019-04-06T04:11:17.753Z,3.87
2019-04-06T04:13:46.222Z,3.76
2019-04-06T04:16:14.648Z,3.87
2019-04-06T04:18:43.061Z,3.87
2019-04-06T04:21:11.659Z,3.83
2019-04-06T04:23:40.152Z,3.77
2019-04-06T04:26:08.886Z,3.80
2019-04-06T04:28:37.697Z,3.79
2019-04-06T04:31:06.214Z,3.76
2019-04-06T04:33:34.644Z,3.77
2019-04-06T04:36:03.110Z,3.77
2019-04-06T04:38:31.791Z,3.80
2019-04-06T04:41:00.508Z,3.82
2019-04-06T04:43:28.984Z,3.79
2019-04-06T04:45:58.233Z,3.66
2019-04-06T04:48:26.720Z,3.58
2019-04-06T04:50:55.147Z,3.52
2019-04-06T04:53:23.590Z,3.48
2019-04-06T04:55:52.228Z,3.65
2019-04-06T04:58:20.663Z,3.54
2019-04-06T05:00:49.433Z,3.47
2019-04-06T05:03:17.926Z,3.51
2019-04-06T05:05:46.347Z,3.53
2019-04-06T05:08:14.802Z,3.43
2019-04-06T05:10:44.795Z,3.51
2019-04-06T05:13:13.501Z,3.56
2019-04-06T05:16:11.822Z,3.38
2019-04-06T05:18:41.974Z,3.52
2019-04-06T05:21:11.925Z,3.47
2019-04-06T05:23:40.418Z,3.52
2019-04-06T05:26:09.239Z,3.52
2019-04-06T05:28:37.718Z,3.56
2019-04-06T05:31:06.244Z,3.55
2019-04-06T05:33:34.821Z,3.69
2019-04-06T05:36:03.546Z,3.69
2019-04-06T05:38:34.418Z,3.79
2019-04-06T05:41:03.250Z,3.85
2019-04-06T05:43:31.930Z,3.88
2019-04-06T05:46:00.483Z,3.97
2019-04-06T05:48:28.949Z,4.01
2019-04-06T05:50:57.651Z,4.10
2019-04-06T05:53:26.614Z,4.04
2019-04-06T05:55:55.100Z,4.13
2019-04-06T05:58:23.544Z,4.15
2019-04-06T06:00:52.169Z,4.31
2019-04-06T06:03:20.871Z,4.37
2019-04-06T06:05:49.578Z,4.37
2019-04-06T06:08:18.095Z,4.48
2019-04-06T06:10:47.433Z,4.57
2019-04-06T06:13:16.378Z,4.61
2019-04-06T06:15:46.401Z,4.71
2019-04-06T06:18:25.423Z,4.78
2019-04-06T06:20:45.212Z,4.92
2019-04-06T06:23:15.850Z,4.97
2019-04-06T06:25:45.845Z,5.00
2019-04-06T06:28:15.556Z,4.91
2019-04-06T06:30:44.402Z,5.09
2019-04-06T06:33:12.943Z,5.26
2019-04-06T06:35:41.471Z,5.44
2019-04-06T06:38:09.933Z,5.51
2019-04-06T06:40:38.389Z,5.67
2019-04-06T06:43:06.881Z,5.73
2019-04-06T06:45:35.475Z,5.88
2019-04-06T06:48:04.133Z,5.97
2019-04-06T06:50:34.523Z,6.06
2019-04-06T06:53:02.786Z,6.22
2019-04-06T06:55:31.424Z,6.18
2019-04-06T06:57:59.872Z,6.08
2019-04-06T07:00:28.312Z,6.26
2019-04-06T07:02:56.793Z,6.34
2019-04-06T07:05:25.314Z,6.52
2019-04-06T07:07:53.752Z,6.81
2019-04-06T07:10:22.257Z,6.78
2019-04-06T07:12:50.757Z,6.52
2019-04-06T07:15:19.285Z,6.79
2019-04-06T07:17:47.706Z,6.62
2019-04-06T07:20:16.889Z,6.47
2019-04-06T07:22:45.706Z,6.85
2019-04-06T07:25:15.010Z,7.22
2019-04-06T07:27:43.445Z,7.73
2019-04-06T07:30:12.839Z,8.33
2019-04-06T07:32:41.430Z,8.64
2019-04-06T07:35:10.064Z,9.34
2019-04-06T07:37:38.679Z,9.77
2019-04-06T07:40:10.387Z,10.00
2019-04-06T07:42:38.956Z,10.11
2019-04-06T07:45:09.019Z,10.09
2019-04-06T07:47:37.547Z,9.68
2019-04-06T07:50:07.210Z,10.16
2019-04-06T07:52:36.314Z,10.57
2019-04-06T07:55:08.536Z,10.56
2019-04-06T07:57:37.015Z,10.76
2019-04-06T08:00:09.358Z,11.43
2019-04-06T08:02:37.811Z,11.45
2019-04-06T08:05:07.291Z,12.07
2019-04-06T08:07:35.846Z,12.33
2019-04-06T08:10:05.374Z,12.94
2019-04-06T08:12:33.806Z,13.37
2019-04-06T08:15:02.340Z,14.15
2019-04-06T08:17:30.823Z,13.55
2019-04-06T08:19:59.406Z,13.64
2019-04-06T08:22:27.878Z,12.45
2019-04-06T08:24:56.327Z,12.54
2019-04-06T08:27:24.770Z,12.22
2019-04-06T08:29:53.220Z,11.33
2019-04-06T08:32:21.655Z,11.77
2019-04-06T08:34:50.262Z,11.67
2019-04-06T08:37:18.861Z,11.31
2019-04-06T08:39:47.734Z,10.52
2019-04-06T08:42:16.359Z,10.71
2019-04-06T08:44:44.728Z,10.92
2019-04-06T08:47:13.176Z,10.62
2019-04-06T08:49:41.628Z,10.55
2019-04-06T08:52:11.611Z,10.75
2019-04-06T08:54:40.555Z,10.78
2019-04-06T08:57:09.410Z,10.93
2019-04-06T08:59:37.998Z,11.17
2019-04-06T09:02:06.807Z,10.68
2019-04-06T09:04:35.282Z,10.58
2019-04-06T09:07:03.731Z,10.59
2019-04-06T09:09:32.212Z,10.85
2019-04-06T09:12:00.749Z,10.77
2019-04-06T09:14:29.488Z,11.05
2019-04-06T09:16:58.167Z,10.49
2019-04-06T09:19:26.613Z,10.99
2019-04-06T09:21:55.075Z,11.22
2019-04-06T09:24:23.563Z,11.46
2019-04-06T09:26:52.026Z,11.61
2019-04-06T09:29:24.126Z,11.59
2019-04-06T09:31:50.634Z,11.45
2019-04-06T09:34:19.118Z,11.83
2019-04-06T09:36:47.567Z,11.58
2019-04-06T09:39:16.184Z,11.48
2019-04-06T09:41:44.919Z,11.55
2019-04-06T09:44:15.063Z,11.86
2019-04-06T09:47:00.406Z,11.77
2019-04-06T09:49:30.498Z,12.29
2019-04-06T09:52:16.634Z,12.06
2019-04-06T09:55:05.133Z,12.47
2019-04-06T09:57:38.153Z,12.29
2019-04-06T10:00:15.867Z,11.80
2019-04-06T10:02:45.977Z,11.98
2019-04-06T10:05:18.752Z,12.01
2019-04-06T10:07:48.913Z,12.22
2019-04-06T10:10:34.099Z,12.31
2019-04-06T10:13:06.725Z,12.21
2019-04-06T10:15:43.042Z,12.09
2019-04-06T10:18:29.511Z,12.48
2019-04-06T10:21:02.353Z,12.93
2019-04-06T10:23:38.136Z,13.05
2019-04-06T10:26:17.053Z,13.21
2019-04-06T10:28:52.918Z,13.08
2019-04-06T10:31:37.680Z,13.13
2019-04-06T10:34:13.895Z,13.52
2019-04-06T10:36:47.002Z,13.66
2019-04-06T10:39:19.642Z,13.65
2019-04-06T10:42:04.985Z,13.70
2019-04-06T10:44:50.307Z,14.22
2019-04-06T10:47:35.237Z,14.37
2019-04-06T10:50:06.213Z,14.47
2019-04-06T10:52:48.154Z,14.66
2019-04-06T10:55:29.950Z,14.80
2019-04-06T10:58:00.248Z,14.90
2019-04-06T11:00:32.893Z,15.04
2019-04-06T11:03:02.979Z,14.53
2019-04-06T11:05:36.376Z,14.53
2019-04-06T11:08:24.903Z,14.86
2019-04-06T11:11:02.468Z,14.91
2019-04-06T11:13:32.862Z,15.07
2019-04-06T11:16:19.166Z,15.20
2019-04-06T11:18:55.095Z,15.31
2019-04-06T11:21:25.429Z,15.20
2019-04-06T11:24:04.731Z,15.40
2019-04-06T11:26:38.070Z,15.52
2019-04-06T11:29:17.222Z,15.68
2019-04-06T11:31:56.571Z,15.95
2019-04-06T11:34:26.864Z,16.06
2019-04-06T11:37:15.009Z,16.07
2019-04-06T11:39:47.771Z,16.17
2019-04-06T11:42:29.564Z,16.02
2019-04-06T11:44:59.856Z,16.05
2019-04-06T11:47:29.979Z,16.28
2019-04-06T11:50:00.138Z,16.42
2019-04-06T11:52:30.240Z,16.38
2019-04-06T11:55:02.861Z,16.53
2019-04-06T11:57:49.341Z,16.53
2019-04-06T12:00:35.751Z,16.83
2019-04-06T12:03:06.207Z,16.81
2019-04-06T12:05:52.417Z,16.63
2019-04-06T12:08:22.573Z,16.67
2019-04-06T12:10:52.714Z,16.79
2019-04-06T12:13:25.789Z,16.83
2019-04-06T12:15:55.875Z,16.84
2019-04-06T12:18:25.955Z,16.90
2019-04-06T12:21:10.791Z,17.06
2019-04-06T12:23:57.040Z,17.23
2019-04-06T12:26:36.186Z,17.12
2019-04-06T12:29:21.213Z,17.25
2019-04-06T12:32:05.959Z,17.34
2019-04-06T12:34:36.055Z,17.37
2019-04-06T12:37:20.913Z,17.46
2019-04-06T12:40:03.528Z,17.60
2019-04-06T12:42:36.372Z,17.69
2019-04-06T12:45:23.723Z,17.83
2019-04-06T12:48:10.247Z,17.76
2019-04-06T12:50:42.736Z,17.81
2019-04-06T12:53:12.826Z,17.88
2019-04-06T12:55:45.709Z,17.85
2019-04-06T12:58:15.798Z,17.98
2019-04-06T13:00:52.929Z,18.05
2019-04-06T13:03:23.265Z,18.09
2019-04-06T13:06:02.262Z,18.28
2019-04-06T13:08:32.788Z,18.34
2019-04-06T13:11:19.827Z,18.43
2019-04-06T13:13:49.888Z,18.34
2019-04-06T13:16:22.758Z,18.35
2019-04-06T13:19:09.253Z,18.44
2019-04-06T13:21:55.619Z,18.37
2019-04-06T13:24:41.960Z,18.52
2019-04-06T13:27:24.223Z,18.50
2019-04-06T13:30:00.588Z,18.51
2019-04-06T13:32:42.713Z,18.57
2019-04-06T13:35:18.493Z,18.65
2019-04-06T13:38:03.805Z,18.69
2019-04-06T13:40:50.298Z,18.82
2019-04-06T13:43:20.363Z,18.87
2019-04-06T13:45:50.474Z,18.91
2019-04-06T13:48:23.337Z,18.91
2019-04-06T13:51:11.544Z,18.92
2019-04-06T13:54:00.089Z,18.95
2019-04-06T13:56:33.160Z,19.05
2019-04-06T13:59:08.688Z,19.12
2019-04-06T14:01:41.675Z,18.97
2019-04-06T14:04:14.513Z,19.17
2019-04-06T14:06:47.304Z,19.07
2019-04-06T14:09:17.647Z,19.13
2019-04-06T14:11:51.013Z,19.21
2019-04-06T14:14:21.076Z,19.17
2019-04-06T14:16:53.579Z,19.26
2019-04-06T14:19:26.640Z,19.28
2019-04-06T14:22:11.983Z,19.43
2019-04-06T14:25:00.481Z,19.43
2019-04-06T14:27:39.072Z,19.38
2019-04-06T14:30:10.496Z,19.35
2019-04-06T14:32:40.683Z,19.58
2019-04-06T14:35:21.996Z,19.56
2019-04-06T14:37:52.454Z,19.53
2019-04-06T14:40:40.317Z,19.64
2019-04-06T14:43:21.276Z,19.64
2019-04-06T14:46:04.507Z,19.64
2019-04-06T14:48:45.360Z,19.80
2019-04-06T14:51:16.392Z,19.89
2019-04-06T14:53:55.049Z,19.86
2019-04-06T14:56:25.440Z,19.86
2019-04-06T14:58:58.389Z,20.00
2019-04-06T15:01:45.270Z,20.00
2019-04-06T15:04:22.681Z,19.86
2019-04-06T15:06:53.873Z,19.76
2019-04-06T15:09:33.179Z,19.76
2019-04-06T15:12:12.173Z,19.84
2019-04-06T15:14:47.478Z,19.82
2019-04-06T15:17:20.926Z,19.72
2019-04-06T15:19:51.023Z,19.69
2019-04-06T15:22:40.082Z,19.72
2019-04-06T15:25:22.599Z,19.88
2019-04-06T15:27:58.404Z,19.89
2019-04-06T15:30:34.231Z,19.83
2019-04-06T15:33:20.949Z,19.89
2019-04-06T15:36:02.841Z,19.95
2019-04-06T15:38:40.925Z,19.85
2019-04-06T15:41:11.231Z,19.85
2019-04-06T15:43:48.962Z,19.98
2019-04-06T15:46:25.469Z,19.91
2019-04-06T15:48:55.702Z,19.88
2019-04-06T15:51:41.901Z,19.88
2019-04-06T15:54:20.390Z,19.94
2019-04-06T15:57:05.696Z,19.90
2019-04-06T15:59:37.396Z,19.88
2019-04-06T16:02:13.654Z,19.84
2019-04-06T16:04:49.800Z,19.85
2019-04-06T16:07:37.664Z,19.85
2019-04-06T16:10:21.244Z,19.69
2019-04-06T16:12:51.689Z,19.83
2019-04-06T16:15:39.817Z,19.76
2019-04-06T16:18:25.373Z,19.76
2019-04-06T16:20:59.175Z,19.74
2019-04-06T16:23:29.870Z,19.76
2019-04-06T16:26:03.311Z,19.69
2019-04-06T16:28:36.319Z,19.40
2019-04-06T16:31:12.925Z,19.24
2019-04-06T16:33:46.362Z,19.13
2019-04-06T16:36:19.840Z,19.26
2019-04-06T16:38:52.693Z,19.30
2019-04-06T16:41:41.154Z,19.27
2019-04-06T16:44:11.987Z,19.17
2019-04-06T16:46:42.553Z,18.96
2019-04-06T16:49:22.918Z,18.89
2019-04-06T16:52:10.073Z,18.89
2019-04-06T16:54:43.720Z,19.03
2019-04-06T16:57:30.885Z,19.03
2019-04-06T17:00:01.335Z,19.01
2019-04-06T17:02:50.842Z,19.00
2019-04-06T17:05:37.615Z,19.00
2019-04-06T17:08:12.075Z,19.05
2019-04-06T17:10:43.062Z,18.98
2019-04-06T17:13:22.440Z,19.00
2019-04-06T17:15:56.245Z,18.97
2019-04-06T17:18:42.400Z,18.96
2019-04-06T17:21:19.291Z,18.93
2019-04-06T17:24:05.770Z,18.94
2019-04-06T17:26:35.900Z,18.90
2019-04-06T17:29:16.004Z,18.92
2019-04-06T17:31:49.768Z,18.90
2019-04-06T17:34:36.205Z,18.83
2019-04-06T17:37:06.560Z,18.78
2019-04-06T17:39:42.766Z,18.70
2019-04-06T17:42:26.097Z,18.59
2019-04-06T17:45:10.383Z,18.49
2019-04-06T17:47:56.911Z,18.53
2019-04-06T17:50:27.193Z,18.49
2019-04-06T17:53:01.734Z,18.40
2019-04-06T17:55:49.440Z,18.46
2019-04-06T17:58:19.698Z,18.43
2019-04-06T18:00:51.550Z,18.41
2019-04-06T18:03:27.693Z,18.38
2019-04-06T18:06:14.123Z,18.33
2019-04-06T18:08:53.282Z,18.27
2019-04-06T18:11:24.194Z,18.24
2019-04-06T18:13:54.171Z,18.35
2019-04-06T18:16:24.339Z,18.25
2019-04-06T18:18:53.115Z,18.28
2019-04-06T18:21:22.257Z,18.23
2019-04-06T18:23:51.250Z,18.18
2019-04-06T18:26:20.443Z,18.11
2019-04-06T18:28:49.332Z,18.07
2019-04-06T18:31:22.648Z,18.04
2019-04-06T18:33:51.188Z,17.95
2019-04-06T18:36:21.968Z,18.00
2019-04-06T18:38:54.977Z,17.92
2019-04-06T18:41:23.950Z,17.87
2019-04-06T18:43:53.495Z,17.83
2019-04-06T18:46:22.534Z,17.77
2019-04-06T18:48:55.164Z,17.67
2019-04-06T18:51:24.645Z,17.63
2019-04-06T18:53:53.706Z,17.55
2019-04-06T18:56:25.455Z,17.51
2019-04-06T18:58:54.120Z,17.44
2019-04-06T19:01:22.956Z,17.38
2019-04-06T19:03:51.789Z,17.31
2019-04-06T19:06:20.384Z,17.24
2019-04-06T19:08:48.815Z,17.25
2019-04-06T19:11:17.506Z,17.24
2019-04-06T19:13:46.744Z,17.14
2019-04-06T19:16:17.255Z,17.13
2019-04-06T19:18:46.671Z,17.07
2019-04-06T19:21:15.528Z,17.07
2019-04-06T19:23:44.053Z,17.01
2019-04-06T19:26:12.859Z,16.98
2019-04-06T19:28:42.284Z,16.95
2019-04-06T19:31:12.563Z,16.89
2019-04-06T19:33:42.417Z,16.73
2019-04-06T19:36:11.680Z,16.68
2019-04-06T19:38:40.395Z,16.60
2019-04-06T19:41:09.271Z,16.49
2019-04-06T19:43:41.024Z,16.42
2019-04-06T19:46:09.528Z,16.36
2019-04-06T19:48:40.613Z,16.32
2019-04-06T19:51:08.955Z,16.24
2019-04-06T19:53:39.119Z,16.16
2019-04-06T19:56:07.825Z,16.10
2019-04-06T19:58:37.092Z,16.04
2019-04-06T20:01:05.811Z,16.01
2019-04-06T20:03:37.358Z,15.91
2019-04-06T20:06:04.769Z,15.86
2019-04-06T20:08:33.378Z,15.81
2019-04-06T20:11:01.988Z,15.79
2019-04-06T20:13:30.719Z,15.70
2019-04-06T20:15:59.885Z,15.63
2019-04-06T20:18:28.977Z,15.60
2019-04-06T20:20:57.798Z,15.52
2019-04-06T20:23:26.657Z,15.45
2019-04-06T20:25:56.760Z,15.44
2019-04-06T20:28:25.480Z,15.41
2019-04-06T20:30:54.477Z,15.31
2019-04-06T20:33:23.325Z,15.26
2019-04-06T20:35:52.126Z,15.21
2019-04-06T20:38:20.905Z,15.13
2019-04-06T20:40:50.864Z,15.04
2019-04-06T20:43:19.762Z,14.95
2019-04-06T20:45:48.876Z,14.85
2019-04-06T20:48:17.471Z,14.79
2019-04-06T20:50:46.120Z,14.73
2019-04-06T20:53:15.292Z,14.66
2019-04-06T20:55:43.761Z,14.63
2019-04-06T20:58:12.246Z,14.58
2019-04-06T21:00:40.670Z,14.55
2019-04-06T21:03:09.633Z,14.47
2019-04-06T21:05:38.337Z,14.44
2019-04-06T21:08:07.374Z,14.37
2019-04-06T21:10:36.259Z,14.37
2019-04-06T21:13:05.431Z,14.32
2019-04-06T21:15:34.135Z,14.25
2019-04-06T21:18:02.741Z,14.24
2019-04-06T21:20:31.471Z,14.21
2019-04-06T21:23:00.149Z,14.16
2019-04-06T21:25:28.620Z,14.14
2019-04-06T21:27:57.806Z,14.06
2019-04-06T21:30:26.645Z,14.04
2019-04-06T21:32:55.451Z,13.99
2019-04-06T21:35:23.973Z,13.91
2019-04-06T21:37:52.852Z,13.87
2019-04-06T21:40:21.564Z,13.81
2019-04-06T21:42:50.141Z,13.79
2019-04-06T21:45:19.611Z,13.75
2019-04-06T21:47:49.494Z,13.74
2019-04-06T21:50:18.149Z,13.73
2019-04-06T21:52:49.186Z,13.71
2019-04-06T21:55:16.955Z,13.70
2019-04-06T21:57:45.658Z,13.69
2019-04-06T22:00:16.661Z,13.70
2019-04-06T22:02:45.898Z,13.65
2019-04-06T22:05:17.123Z,13.59
2019-04-06T22:07:49.845Z,13.55
2019-04-06T22:10:17.256Z,13.48
2019-04-06T22:12:46.061Z,13.44
2019-04-06T22:15:16.198Z,13.40
2019-04-06T22:17:45.704Z,13.38
2019-04-06T22:20:14.962Z,13.34
2019-04-06T22:22:43.482Z,13.34
2019-04-06T22:25:12.198Z,13.35
2019-04-06T22:27:41.601Z,13.32
2019-04-06T22:30:11.270Z,13.32
2019-04-06T22:32:40.315Z,13.30
2019-04-06T22:35:09.965Z,13.02
2019-04-06T22:37:39.575Z,13.13
2019-04-06T22:40:08.609Z,13.15
2019-04-06T22:42:37.708Z,13.20
2019-04-06T22:45:13.777Z,13.17
2019-04-06T22:47:45.181Z,13.13
2019-04-06T22:50:15.186Z,13.13
2019-04-06T22:52:45.207Z,13.14
2019-04-06T22:55:13.905Z,13.15
2019-04-06T22:57:42.811Z,13.10
2019-04-06T23:00:16.742Z,13.10
2019-04-06T23:03:02.844Z,13.02
2019-04-06T23:05:36.998Z,13.05
2019-04-06T23:08:06.371Z,13.01
2019-04-06T23:10:35.074Z,12.89
2019-04-06T23:13:04.438Z,12.80
2019-04-06T23:15:32.839Z,12.67
2019-04-06T23:18:02.142Z,12.67
2019-04-06T23:20:31.179Z,12.57
2019-04-06T23:22:59.673Z,12.44
2019-04-06T23:25:28.893Z,12.43
2019-04-06T23:28:00.116Z,12.37
2019-04-06T23:30:28.532Z,12.24
2019-04-06T23:32:57.387Z,12.18
2019-04-06T23:35:27.603Z,11.95
2019-04-06T23:37:56.514Z,11.96
2019-04-06T23:40:25.170Z,11.85
2019-04-06T23:42:53.767Z,11.68
2019-04-06T23:45:25.477Z,11.67
2019-04-06T23:47:53.945Z,11.52
2019-04-06T23:50:25.878Z,11.34
2019-04-06T23:52:54.615Z,11.27
2019-04-06T23:55:23.434Z,11.28
2019-04-06T23:57:52.512Z,11.14
